This is the latest recevied weather packets stored in our database for station/object K4WCH. If no packets are shown the sender has not sent any weather packets the latest 10 day(s).
| Time | Temp. | Humidity | Pressure | Rain* | Wind** | Luminosity | Snow |
|---|---|---|---|---|---|---|---|
| 1788199781 | 27.22° C | 82% | 1017.6 hPa | 0 mm | - | 116 W/m² | - |
| 1788199475 | 27.22° C | 81% | 1017.6 hPa | 0 mm | - | 127 W/m² | - |
| 1788199175 | 27.78° C | 77% | 1017.8 hPa | 0 mm | - | 205 W/m² | - |
| 1788198872 | 27.78° C | 77% | 1017.8 hPa | 0 mm | - | 205 W/m² | - |
| 1788198567 | 27.78° C | 77% | 1017.4 hPa | 0 mm | - | 205 W/m² | - |
| 1788198262 | 27.78° C | 77% | 1017.4 hPa | 0 mm | - | 212 W/m² | - |
| 1788197961 | 28.89° C | 73% | 1017.3 hPa | 0 mm | - | 225 W/m² | - |
| 1788197661 | 28.89° C | 73% | 1017.4 hPa | 0 mm | - | 225 W/m² | - |
| 1788197356 | 28.89° C | 74% | 1017.5 hPa | 0 mm | - | 176 W/m² | - |
| 1788197052 | 28.89° C | 74% | 1017.7 hPa | 0 mm | - | 176 W/m² | - |
| 1788196752 | 29.44° C | 75% | 1017.6 hPa | 0 mm | - | 224 W/m² | - |
| 1788196448 | 29.44° C | 75% | 1017.7 hPa | 0 mm | - | 224 W/m² | - |
| 1788196151 | 29.44° C | 75% | 1017.6 hPa | 0 mm | - | 224 W/m² | - |
| 1788195841 | 31.11° C | 68% | 1017.7 hPa | 0 mm | - | 218 W/m² | - |
| 1788195537 | 31.11° C | 68% | 1017.9 hPa | 0 mm | - | 218 W/m² | - |
| 1788195232 | 31.11° C | 68% | 1017.7 hPa | 0 mm | - | 218 W/m² | - |
| 1788194929 | 31.11° C | 68% | 1017.7 hPa | 0 mm | - | 218 W/m² | - |
| 1788194625 | 31.11° C | 68% | 1017.8 hPa | 0 mm | - | 218 W/m² | - |
| 1788194320 | 31.11° C | 68% | 1017.7 hPa | 0 mm | - | 218 W/m² | - |
| 1788194016 | 31.11° C | 68% | 1017.9 hPa | 0 mm | - | 218 W/m² | - |
| 1788193714 | 31.11° C | 68% | 1018 hPa | 0 mm | - | 218 W/m² | - |
| 1788193410 | 31.11° C | 68% | 1017.9 hPa | 0 mm | - | 218 W/m² | - |
| 1788193108 | 31.67° C | 62% | 1017.9 hPa | 0 mm | - | 188 W/m² | - |
| 1788192805 | 31.67° C | 64% | 1017.9 hPa | 0 mm | - | 189 W/m² | - |
| 1788192500 | 32.22° C | 63% | 1017.9 hPa | 0 mm | - | 295 W/m² | - |
* Rain latest hour (hover to see other rain measurements)
** Current wind speed in m/s (hover to see current wind gust speed)